Time;durP1;ratioP1;P1;durP2;ratioP2;P2;SDS_P1;SDS_P2;PMS_P1;PMS_P2;Temp;Humidity;BMP_temperature;BMP_pressure;BME280_temperature;BME280_humidity;BME280_pressure;Samples;Min_cycle;Max_cycle;Signal;HPM_P1;HPM_P2
2022/12/23 00:00:40;;;;;;;53.58;21.67;;;5.90;99.90;;;;;;5025854;28;20049;-63
2022/12/23 00:03:06;;;;;;;97.40;19.88;;;5.90;99.90;;;;;;5024609;28;20037;-63
2022/12/23 00:05:36;;;;;;;54.78;22.00;;;5.90;99.90;;;;;;5007375;28;20566;-63
2022/12/23 00:08:08;;;;;;;48.92;23.23;;;5.90;99.90;;;;;;5025876;28;20085;-63
2022/12/23 00:10:38;;;;;;;157.88;26.13;;;5.90;99.90;;;;;;4993148;28;20046;-63
2022/12/23 00:15:48;;;;;;;75.53;24.65;;;5.90;99.90;;;;;;5024957;28;20049;-63
2022/12/23 00:18:14;;;;;;;333.27;28.50;;;5.90;99.90;;;;;;5025095;28;20045;-63
2022/12/23 00:20:39;;;;;;;44.85;23.05;;;5.80;99.90;;;;;;5025550;28;20049;-63
2022/12/23 00:23:05;;;;;;;59.30;21.60;;;5.90;99.90;;;;;;5025201;28;20041;-63
2022/12/23 00:25:39;;;;;;;167.38;23.67;;;5.90;99.90;;;;;;5025515;28;20490;-63
2022/12/23 00:28:17;;;;;;;75.90;21.27;;;5.90;99.90;;;;;;5024499;28;20412;-63
2022/12/23 00:30:51;;;;;;;57.85;20.80;;;5.90;99.90;;;;;;5025887;28;20049;-63
2022/12/23 00:33:20;;;;;;;56.72;18.40;;;6.00;99.90;;;;;;5024582;28;20045;-63
2022/12/23 00:35:49;;;;;;;151.70;22.95;;;6.00;99.90;;;;;;5026232;28;20045;-63
2022/12/23 00:44:19;;;;;;;185.65;27.15;;;6.10;99.90;;;;;;4947853;29;20055;-63
2022/12/23 00:46:45;;;;;;;68.50;22.40;;;6.00;99.90;;;;;;4948062;29;20055;-63
2022/12/23 00:52:00;;;;;;;102.28;23.73;;;6.10;99.90;;;;;;5028985;28;20053;-63
2022/12/23 00:54:26;;;;;;;179.18;29.52;;;6.10;99.90;;;;;;5028235;28;20095;-63
2022/12/23 00:56:52;;;;;;;179.35;30.35;;;6.10;99.90;;;;;;5028281;28;20045;-63
2022/12/23 00:59:18;;;;;;;62.60;25.23;;;6.10;99.90;;;;;;5007440;28;20054;-63
2022/12/23 01:07:23;;;;;;;103.20;25.05;;;6.10;99.90;;;;;;5019867;28;20071;-63
2022/12/23 01:09:49;;;;;;;89.18;26.58;;;6.00;99.90;;;;;;5019933;28;20052;-64
2022/12/23 01:12:15;;;;;;;112.47;25.67;;;6.10;99.90;;;;;;5009450;28;20125;-63
2022/12/23 01:14:40;;;;;;;457.85;36.92;;;6.10;99.90;;;;;;5001813;28;20116;-63
2022/12/23 01:17:07;;;;;;;171.48;28.83;;;6.10;99.90;;;;;;5016051;28;20120;-63
2022/12/23 01:19:33;;;;;;;565.58;35.65;;;6.10;99.90;;;;;;4999853;28;20045;-63
2022/12/23 01:21:58;;;;;;;907.83;45.10;;;6.10;99.90;;;;;;5028694;28;20136;-63
2022/12/23 01:24:31;;;;;;;702.08;32.40;;;6.10;99.90;;;;;;5027868;28;20053;-63
2022/12/23 01:26:57;;;;;;;620.20;31.90;;;6.10;99.90;;;;;;4994112;28;20495;-63
2022/12/23 01:29:23;;;;;;;733.97;32.17;;;6.10;99.90;;;;;;5027750;28;20033;-63
2022/12/23 01:31:50;;;;;;;672.17;31.40;;;6.00;99.90;;;;;;5027810;28;20047;-63
2022/12/23 01:34:16;;;;;;;868.90;40.17;;;6.10;99.90;;;;;;5028508;28;20053;-63
2022/12/23 01:36:41;;;;;;;782.90;37.55;;;6.10;99.90;;;;;;5003489;28;20049;-63
2022/12/23 01:39:07;;;;;;;808.10;41.05;;;6.10;99.90;;;;;;5028437;28;20399;-64
2022/12/23 01:44:50;;;;;;;364.30;30.67;;;6.10;99.90;;;;;;5027871;28;20052;-63
2022/12/23 01:47:40;;;;;;;138.20;27.73;;;6.20;99.90;;;;;;5026610;28;20479;-63
2022/12/23 01:50:14;;;;;;;252.57;25.15;;;6.10;99.90;;;;;;5027877;28;20045;-63
2022/12/23 01:52:53;;;;;;;114.75;22.70;;;6.20;99.90;;;;;;5027248;28;20516;-64
2022/12/23 01:55:26;;;;;;;136.02;19.63;;;6.20;99.90;;;;;;5027774;28;20134;-63
2022/12/23 01:57:57;;;;;;;156.05;21.05;;;6.20;99.90;;;;;;5027780;28;20064;-63
2022/12/23 02:09:15;;;;;;;89.25;19.85;;;6.20;99.90;;;;;;5023163;28;20419;-63
2022/12/23 02:11:36;;;;;;;88.95;28.23;;;6.20;99.90;;;;;;5012664;28;20084;-63
2022/12/23 02:17:23;;;;;;;101.68;25.58;;;6.20;99.90;;;;;;5016110;28;20136;-63
2022/12/23 02:20:15;;;;;;;81.78;23.00;;;6.20;99.90;;;;;;5026473;28;20064;-64
2022/12/23 02:23:18;;;;;;;130.98;26.30;;;6.20;99.90;;;;;;5026816;28;20029;-64
2022/12/23 02:25:53;;;;;;;145.52;25.50;;;6.20;99.90;;;;;;5016336;28;20045;-64
2022/12/23 02:28:34;;;;;;;134.68;25.75;;;6.20;99.90;;;;;;5008816;28;20056;-64
2022/12/23 02:31:36;;;;;;;106.28;24.60;;;6.20;99.90;;;;;;5027469;28;20076;-63
2022/12/23 02:34:32;;;;;;;77.30;23.25;;;6.20;99.90;;;;;;5008978;28;20068;-63
2022/12/23 02:37:07;;;;;;;124.43;26.63;;;6.20;99.90;;;;;;5026493;28;20041;-63
2022/12/23 02:40:03;;;;;;;63.67;25.95;;;6.20;99.90;;;;;;5027235;28;20098;-63
2022/12/23 02:42:43;;;;;;;108.45;26.67;;;6.20;99.90;;;;;;5013742;28;20454;-64
2022/12/23 02:45:22;;;;;;;96.88;26.45;;;6.20;99.90;;;;;;5026608;28;20095;-64
2022/12/23 02:47:58;;;;;;;71.88;24.30;;;6.20;99.90;;;;;;5026359;28;20468;-63
2022/12/23 02:50:32;;;;;;;101.72;25.73;;;6.20;99.90;;;;;;5023016;28;20124;-63
2022/12/23 02:53:09;;;;;;;73.10;23.05;;;6.20;99.90;;;;;;5026465;28;20099;-63
2022/12/23 02:55:39;;;;;;;81.63;24.80;;;6.20;99.90;;;;;;5025310;28;20060;-63
2022/12/23 02:58:09;;;;;;;75.43;27.40;;;6.20;99.90;;;;;;5026292;28;20091;-63
2022/12/23 03:00:40;;;;;;;107.65;25.95;;;6.20;99.90;;;;;;5008434;28;20497;-63
2022/12/23 03:03:06;;;;;;;98.90;31.55;;;6.20;99.90;;;;;;5025859;28;20054;-63
2022/12/23 03:05:39;;;;;;;104.65;33.67;;;6.20;99.90;;;;;;5026342;28;20041;-64
2022/12/23 03:08:12;;;;;;;91.55;30.73;;;6.20;99.90;;;;;;5026117;28;20072;-63
2022/12/23 03:11:02;;;;;;;138.52;35.63;;;6.40;99.90;;;;;;5015040;28;20089;-63
2022/12/23 03:13:41;;;;;;;160.50;37.75;;;6.50;99.90;;;;;;4995390;28;20045;-63
2022/12/23 03:16:19;;;;;;;159.02;35.05;;;6.60;99.90;;;;;;5007880;28;20053;-63
2022/12/23 03:18:49;;;;;;;153.85;39.58;;;6.60;99.90;;;;;;5026064;28;20064;-64
2022/12/23 03:21:33;;;;;;;168.23;39.25;;;6.60;99.90;;;;;;5005470;28;20053;-63
2022/12/23 03:24:20;;;;;;;168.80;40.58;;;6.60;99.90;;;;;;5025595;28;20124;-64
2022/12/23 03:26:59;;;;;;;168.57;42.58;;;6.60;99.90;;;;;;5025679;28;20049;-63
2022/12/23 03:29:49;;;;;;;178.18;43.47;;;6.60;99.90;;;;;;5025514;28;20068;-64
2022/12/23 03:32:16;;;;;;;193.10;43.88;;;6.60;99.90;;;;;;5019646;28;20404;-63
2022/12/23 03:34:46;;;;;;;186.85;39.70;;;6.60;99.90;;;;;;5025166;28;20626;-63
2022/12/23 03:37:16;;;;;;;163.85;39.58;;;6.60;99.90;;;;;;5016861;28;20084;-64
2022/12/23 03:39:57;;;;;;;164.80;36.90;;;6.60;99.90;;;;;;5012144;28;20276;-63
2022/12/23 03:42:29;;;;;;;147.07;36.08;;;6.60;99.90;;;;;;5017771;28;20056;-64
2022/12/23 03:44:57;;;;;;;148.82;36.38;;;6.60;99.90;;;;;;5019135;28;20072;-64
2022/12/23 03:47:30;;;;;;;152.15;36.88;;;6.60;99.90;;;;;;5025557;28;20520;-64
2022/12/23 03:50:02;;;;;;;131.20;34.35;;;6.70;99.90;;;;;;5025559;28;20120;-64
2022/12/23 03:52:55;;;;;;;160.60;36.65;;;6.60;99.90;;;;;;5025218;28;20091;-64
2022/12/23 03:55:37;;;;;;;164.40;37.10;;;6.60;99.90;;;;;;4992690;28;20461;-63
2022/12/23 03:58:15;;;;;;;158.85;35.38;;;6.60;99.90;;;;;;5025236;28;20045;-64
2022/12/23 04:00:55;;;;;;;150.90;34.28;;;6.60;99.90;;;;;;5007549;28;20049;-64
2022/12/23 04:03:32;;;;;;;144.93;34.17;;;6.60;99.90;;;;;;5024886;28;20745;-64
2022/12/23 04:06:01;;;;;;;139.10;32.75;;;6.60;99.90;;;;;;5025278;28;20037;-64
2022/12/23 04:08:35;;;;;;;131.02;34.38;;;6.60;99.90;;;;;;5025097;28;20068;-64
2022/12/23 04:11:03;;;;;;;145.02;35.33;;;6.60;99.90;;;;;;4997673;28;20045;-64
2022/12/23 04:13:30;;;;;;;137.65;34.28;;;6.60;99.90;;;;;;5029181;28;20042;-63
2022/12/23 04:16:00;;;;;;;178.88;40.65;;;6.60;99.90;;;;;;5029276;28;20132;-63
2022/12/23 04:18:26;;;;;;;179.93;41.83;;;6.60;99.90;;;;;;5011151;28;20057;-63
2022/12/23 04:20:52;;;;;;;154.38;36.75;;;6.60;99.90;;;;;;5028168;28;20063;-63
2022/12/23 04:23:18;;;;;;;141.43;34.72;;;6.60;99.90;;;;;;5029464;28;20128;-64
2022/12/23 04:25:44;;;;;;;146.43;35.53;;;6.60;99.90;;;;;;5029333;28;20041;-63
2022/12/23 04:28:10;;;;;;;128.60;33.35;;;6.60;99.90;;;;;;5029057;28;20522;-63
2022/12/23 04:30:36;;;;;;;131.23;33.28;;;6.60;99.90;;;;;;5028546;28;20045;-64
2022/12/23 04:33:02;;;;;;;110.80;29.17;;;6.60;99.90;;;;;;5028238;28;20500;-63
2022/12/23 04:35:28;;;;;;;125.15;31.00;;;6.60;99.90;;;;;;5009027;28;20072;-64
2022/12/23 04:37:54;;;;;;;117.43;30.48;;;6.60;99.90;;;;;;5028463;28;20049;-63
2022/12/23 04:40:20;;;;;;;119.15;31.08;;;6.70;99.90;;;;;;5029125;28;20112;-64
2022/12/23 04:42:46;;;;;;;128.48;31.17;;;6.60;99.90;;;;;;5028812;28;20061;-64
2022/12/23 04:45:11;;;;;;;110.32;29.33;;;6.60;99.90;;;;;;5028924;28;20079;-63
2022/12/23 04:47:37;;;;;;;128.73;31.33;;;6.60;99.90;;;;;;5028794;28;20369;-63
2022/12/23 04:50:04;;;;;;;114.88;29.15;;;6.60;99.90;;;;;;5028399;28;20037;-64
2022/12/23 04:52:29;;;;;;;107.75;27.65;;;6.50;99.90;;;;;;5028246;28;20048;-63
2022/12/23 04:54:57;;;;;;;98.97;27.13;;;6.50;99.90;;;;;;5010633;28;20129;-63
2022/12/23 04:57:22;;;;;;;75.60;22.10;;;6.50;99.90;;;;;;5010407;28;20045;-63
2022/12/23 04:59:48;;;;;;;83.55;25.25;;;6.50;99.90;;;;;;5028459;28;20435;-63
2022/12/23 05:02:14;;;;;;;92.22;25.88;;;6.40;99.90;;;;;;5028939;28;20381;-64
2022/12/23 05:04:43;;;;;;;90.18;24.65;;;6.40;99.90;;;;;;5028587;28;20136;-64
2022/12/23 05:07:08;;;;;;;85.10;23.30;;;6.40;99.90;;;;;;5010835;28;20049;-63
2022/12/23 05:09:35;;;;;;;75.47;22.23;;;6.30;99.90;;;;;;5025806;28;20064;-63
2022/12/23 05:12:00;;;;;;;77.13;22.10;;;6.30;99.90;;;;;;5016993;28;20492;-63
2022/12/23 05:14:26;;;;;;;82.63;24.55;;;6.30;99.90;;;;;;5028420;28;20090;-63
2022/12/23 05:16:52;;;;;;;75.93;20.67;;;6.20;99.90;;;;;;5010485;28;20037;-63
2022/12/23 05:19:17;;;;;;;70.57;21.30;;;6.10;99.90;;;;;;5028029;28;20072;-64
2022/12/23 05:21:44;;;;;;;79.32;22.75;;;6.10;99.90;;;;;;5009844;28;20038;-64
2022/12/23 05:24:10;;;;;;;81.53;24.40;;;6.10;99.90;;;;;;5027898;28;20496;-63
2022/12/23 05:26:35;;;;;;;74.03;21.10;;;6.10;99.90;;;;;;5027759;28;20104;-64
2022/12/23 05:29:01;;;;;;;68.72;21.38;;;6.10;99.90;;;;;;5027947;28;20045;-64
2022/12/23 05:31:27;;;;;;;81.28;21.23;;;6.10;99.90;;;;;;5027998;28;20439;-64
2022/12/23 05:33:53;;;;;;;67.72;20.58;;;6.20;99.90;;;;;;5027800;28;20049;-64
2022/12/23 05:36:19;;;;;;;84.85;21.27;;;6.20;99.90;;;;;;5028070;28;20042;-64
2022/12/23 05:38:45;;;;;;;71.00;19.95;;;6.20;99.90;;;;;;5010128;28;20499;-64
2022/12/23 05:41:11;;;;;;;68.05;19.80;;;6.20;99.90;;;;;;5027831;28;20084;-63
2022/12/23 05:43:36;;;;;;;69.75;20.75;;;6.20;99.90;;;;;;5009427;28;20789;-64
2022/12/23 05:46:02;;;;;;;64.47;19.77;;;6.20;99.90;;;;;;5027738;28;20312;-64
2022/12/23 05:48:28;;;;;;;80.85;20.98;;;6.20;99.90;;;;;;5027439;28;20558;-64
2022/12/23 05:50:53;;;;;;;80.40;20.83;;;6.30;99.90;;;;;;5027454;28;20048;-64
2022/12/23 05:53:20;;;;;;;69.38;19.90;;;6.20;99.90;;;;;;5027492;28;20045;-64
2022/12/23 05:55:46;;;;;;;79.82;21.45;;;6.20;99.90;;;;;;5027452;28;20045;-63
2022/12/23 05:58:12;;;;;;;66.68;19.70;;;6.20;99.90;;;;;;5027577;28;20073;-64
2022/12/23 06:00:38;;;;;;;75.47;19.80;;;6.30;99.90;;;;;;5027392;28;20077;-64
2022/12/23 06:03:04;;;;;;;63.35;18.10;;;6.30;99.90;;;;;;5005911;28;20496;-64
2022/12/23 06:05:29;;;;;;;62.33;18.75;;;6.30;99.90;;;;;;4988143;28;20058;-64
2022/12/23 06:07:56;;;;;;;73.65;19.95;;;6.30;99.90;;;;;;4993609;28;20419;-64
2022/12/23 06:10:21;;;;;;;64.22;18.70;;;6.30;99.90;;;;;;5018028;28;20042;-64
2022/12/23 06:12:47;;;;;;;58.35;17.30;;;6.30;99.90;;;;;;5021867;28;20053;-64
2022/12/23 06:15:14;;;;;;;44.97;14.25;;;6.20;99.90;;;;;;5026833;28;20037;-64
2022/12/23 06:17:40;;;;;;;39.38;13.45;;;6.20;99.90;;;;;;5027404;28;20124;-64
2022/12/23 06:20:07;;;;;;;56.92;16.00;;;6.20;99.90;;;;;;5009394;28;20348;-64
2022/12/23 06:22:34;;;;;;;52.42;17.30;;;6.30;99.90;;;;;;5027221;28;20053;-64
2022/12/23 06:24:59;;;;;;;49.92;16.05;;;6.20;99.90;;;;;;5009665;28;20468;-64
2022/12/23 06:27:25;;;;;;;56.80;16.95;;;6.20;99.90;;;;;;5026956;28;20056;-63
2022/12/23 06:29:51;;;;;;;47.88;16.30;;;6.20;99.90;;;;;;5026886;28;20045;-63
2022/12/23 06:32:17;;;;;;;62.40;17.38;;;6.10;99.90;;;;;;4999896;28;20046;-64
2022/12/23 06:34:43;;;;;;;56.00;17.67;;;6.10;99.90;;;;;;5023998;28;20594;-64
2022/12/23 06:37:09;;;;;;;47.47;16.73;;;6.00;99.90;;;;;;5026990;28;20127;-63
2022/12/23 06:39:35;;;;;;;52.33;17.15;;;5.90;99.90;;;;;;5005722;28;20103;-64
2022/12/23 06:42:01;;;;;;;50.67;16.48;;;5.80;99.90;;;;;;5024806;28;20084;-64
2022/12/23 06:44:26;;;;;;;49.03;17.08;;;5.70;99.90;;;;;;5025703;28;20053;-64
2022/12/23 06:46:52;;;;;;;57.15;17.13;;;5.70;99.90;;;;;;5026593;28;20083;-64
2022/12/23 06:49:18;;;;;;;57.05;15.85;;;5.70;99.90;;;;;;5025560;28;20049;-64
2022/12/23 06:51:44;;;;;;;55.83;15.30;;;5.70;99.90;;;;;;5008768;28;20757;-63
2022/12/23 06:54:12;;;;;;;47.40;15.30;;;5.80;99.90;;;;;;5026685;28;20037;-64
2022/12/23 06:56:38;;;;;;;48.42;16.55;;;5.80;99.90;;;;;;5008675;28;20064;-64
2022/12/23 06:59:04;;;;;;;73.25;19.15;;;5.90;99.90;;;;;;5008846;28;20045;-63
2022/12/23 07:01:30;;;;;;;51.63;16.10;;;6.00;99.90;;;;;;5025709;28;20053;-64
2022/12/23 07:03:56;;;;;;;69.50;17.85;;;5.90;99.90;;;;;;5026408;28;20084;-63
2022/12/23 07:06:21;;;;;;;58.63;16.58;;;5.90;99.90;;;;;;5026018;28;20046;-64
2022/12/23 07:08:49;;;;;;;64.45;16.95;;;5.90;99.90;;;;;;5025823;28;20077;-64
2022/12/23 07:11:14;;;;;;;57.50;17.00;;;5.90;99.90;;;;;;5012048;28;20054;-64
2022/12/23 07:13:40;;;;;;;49.78;16.08;;;5.90;99.90;;;;;;5008228;28;20507;-63
2022/12/23 07:16:07;;;;;;;69.65;17.98;;;5.90;99.90;;;;;;5026439;28;20053;-64
2022/12/23 07:18:34;;;;;;;55.90;14.35;;;6.00;99.90;;;;;;5001812;28;20050;-64
2022/12/23 07:21:01;;;;;;;56.00;16.17;;;6.00;99.90;;;;;;5019279;28;20045;-64
2022/12/23 07:23:27;;;;;;;67.28;17.27;;;6.00;99.90;;;;;;5025518;28;20535;-64
2022/12/23 07:25:54;;;;;;;57.58;16.27;;;6.00;99.90;;;;;;4991962;28;20061;-63
2022/12/23 07:28:22;;;;;;;68.50;18.25;;;6.00;99.90;;;;;;5007602;28;20052;-64
2022/12/23 07:30:47;;;;;;;59.60;16.02;;;6.00;99.90;;;;;;5025469;28;20179;-64
2022/12/23 07:33:13;;;;;;;56.20;16.42;;;6.10;99.90;;;;;;5008413;28;20136;-64
2022/12/23 07:35:41;;;;;;;51.95;15.02;;;6.10;99.90;;;;;;5024892;28;20056;-64
2022/12/23 07:38:07;;;;;;;46.28;14.52;;;6.10;99.90;;;;;;5026502;28;20048;-63
2022/12/23 07:40:33;;;;;;;56.38;14.80;;;6.20;99.90;;;;;;5024932;28;20407;-63
2022/12/23 07:42:59;;;;;;;55.67;15.80;;;6.20;99.90;;;;;;5026043;28;20466;-63
2022/12/23 07:45:26;;;;;;;61.13;16.63;;;6.20;99.90;;;;;;5024349;28;20054;-63
2022/12/23 07:47:53;;;;;;;57.10;16.20;;;6.30;99.90;;;;;;5025358;28;20056;-64
2022/12/23 07:50:19;;;;;;;59.65;16.77;;;6.20;99.90;;;;;;5026106;28;20514;-63
2022/12/23 07:52:45;;;;;;;53.20;16.05;;;6.20;99.90;;;;;;5007565;28;20041;-64
2022/12/23 07:55:11;;;;;;;59.47;16.65;;;6.20;99.90;;;;;;5008324;28;20082;-64
2022/12/23 07:57:38;;;;;;;61.50;16.65;;;6.20;99.90;;;;;;5025032;28;20050;-63
2022/12/23 08:00:06;;;;;;;64.45;17.00;;;6.20;99.90;;;;;;5014533;28;20098;-63
2022/12/23 08:02:32;;;;;;;66.13;17.15;;;6.20;99.90;;;;;;5019067;28;20048;-63
2022/12/23 08:04:58;;;;;;;70.63;17.27;;;6.20;99.90;;;;;;5005668;28;20455;-64
2022/12/23 08:07:24;;;;;;;63.22;16.92;;;6.20;99.90;;;;;;5025107;28;20045;-64
2022/12/23 08:09:50;;;;;;;64.72;17.35;;;6.20;99.90;;;;;;5003024;28;20046;-64
2022/12/23 08:12:16;;;;;;;65.90;17.30;;;6.20;99.90;;;;;;4982732;28;20051;-64
2022/12/23 08:14:43;;;;;;;69.13;17.50;;;6.20;99.90;;;;;;5007260;28;20053;-63
2022/12/23 08:17:08;;;;;;;67.97;16.73;;;6.20;99.90;;;;;;5025199;28;20034;-63
2022/12/23 08:19:34;;;;;;;71.07;18.25;;;6.20;99.90;;;;;;5006914;28;20048;-64
2022/12/23 08:22:00;;;;;;;58.85;16.40;;;6.20;99.90;;;;;;5025319;28;20372;-64
2022/12/23 08:24:26;;;;;;;61.97;17.23;;;6.20;99.90;;;;;;5006706;28;20064;-64
2022/12/23 08:26:52;;;;;;;67.57;17.70;;;6.20;99.90;;;;;;5007050;28;20033;-64
2022/12/23 08:29:18;;;;;;;67.50;18.00;;;6.20;99.90;;;;;;5025659;28;20042;-64
2022/12/23 08:31:43;;;;;;;60.92;17.65;;;6.20;99.90;;;;;;4989455;28;20079;-63
2022/12/23 08:34:09;;;;;;;63.97;16.58;;;6.20;99.90;;;;;;5025293;28;20512;-64
2022/12/23 08:36:35;;;;;;;61.25;17.35;;;6.10;99.90;;;;;;5011509;28;20085;-64
2022/12/23 08:39:05;;;;;;;59.92;16.55;;;6.20;99.90;;;;;;5006554;28;20041;-64
2022/12/23 08:41:34;;;;;;;49.45;15.40;;;6.10;99.90;;;;;;5012549;28;20038;-63
2022/12/23 08:44:00;;;;;;;60.50;16.80;;;6.10;99.90;;;;;;5010832;28;20554;-64
2022/12/23 08:46:26;;;;;;;56.25;16.05;;;6.10;99.90;;;;;;5012851;28;20128;-63
2022/12/23 08:48:52;;;;;;;55.15;15.20;;;6.10;99.90;;;;;;5011014;28;20041;-64
2022/12/23 08:51:20;;;;;;;56.42;17.38;;;6.10;99.90;;;;;;4998502;28;20381;-64
2022/12/23 08:53:47;;;;;;;64.95;17.35;;;6.00;99.90;;;;;;5003403;28;20041;-64
2022/12/23 08:56:21;;;;;;;50.55;15.65;;;6.00;99.90;;;;;;5025536;28;20037;-63
2022/12/23 08:58:51;;;;;;;53.72;15.07;;;6.00;99.90;;;;;;5028007;28;20034;-61
2022/12/23 09:01:18;;;;;;;60.42;14.93;;;5.90;99.90;;;;;;4993686;28;20392;-61
2022/12/23 09:03:44;;;;;;;48.03;15.50;;;5.90;99.90;;;;;;5027767;28;20049;-61
2022/12/23 09:06:14;;;;;;;59.58;16.55;;;6.00;99.90;;;;;;5027878;28;20041;-61
2022/12/23 09:08:40;;;;;;;60.60;17.65;;;6.00;99.90;;;;;;5028007;28;20029;-62
2022/12/23 09:11:10;;;;;;;59.50;16.15;;;6.00;99.90;;;;;;5008620;28;20049;-61
2022/12/23 09:13:36;;;;;;;;;;;6.00;99.90;;;;;;5004437;28;20473;-61
2022/12/23 09:16:02;;;;;;;52.03;15.48;;;6.10;99.90;;;;;;5018191;28;19932;-61
2022/12/23 09:18:29;;;;;;;56.67;14.70;;;6.10;99.90;;;;;;5022354;28;20080;-61
2022/12/23 09:21:00;;;;;;;49.85;14.80;;;6.10;99.90;;;;;;5014242;28;20045;-61
2022/12/23 09:23:27;;;;;;;55.53;16.02;;;6.20;99.90;;;;;;5012118;28;20676;-61
2022/12/23 09:25:54;;;;;;;53.42;15.10;;;6.10;99.90;;;;;;4986643;28;20069;-61
2022/12/23 09:28:20;;;;;;;56.05;15.82;;;6.10;99.90;;;;;;5008218;28;20045;-61
2022/12/23 09:30:46;;;;;;;50.65;14.43;;;6.20;99.90;;;;;;5027009;28;20037;-64
2022/12/23 09:33:12;;;;;;;58.85;16.13;;;6.20;99.90;;;;;;5018522;28;20123;-64
2022/12/23 09:35:38;;;;;;;55.60;16.27;;;6.20;99.90;;;;;;5012049;28;20045;-63
2022/12/23 09:38:04;;;;;;;54.67;16.13;;;6.20;99.90;;;;;;5026290;28;20466;-64
2022/12/23 09:40:33;;;;;;;64.30;17.63;;;6.20;99.90;;;;;;5010920;28;20048;-64
2022/12/23 09:43:31;;;;;;;63.60;18.33;;;6.30;99.90;;;;;;5019225;28;20041;-64
2022/12/23 09:46:20;;;;;;;72.82;19.02;;;6.40;99.90;;;;;;5006919;28;20172;-64
2022/12/23 09:49:08;;;;;;;90.25;18.35;;;6.40;99.90;;;;;;5011662;28;20091;-64
2022/12/23 09:51:34;;;;;;;63.50;16.95;;;6.50;99.90;;;;;;5011158;28;20126;-64
2022/12/23 09:54:24;;;;;;;68.30;17.13;;;6.60;99.90;;;;;;5009782;28;20128;-64
2022/12/23 09:57:27;;;;;;;64.05;15.15;;;6.60;99.90;;;;;;5012573;28;20155;-64
2022/12/23 10:00:06;;;;;;;56.40;15.15;;;6.70;99.90;;;;;;5015406;28;20492;-64
2022/12/23 10:03:01;;;;;;;58.72;15.75;;;6.80;99.90;;;;;;5011260;28;20045;-64
2022/12/23 10:05:55;;;;;;;87.53;17.58;;;6.90;99.90;;;;;;5007219;28;20671;-64
2022/12/23 10:08:46;;;;;;;81.30;17.05;;;6.90;99.90;;;;;;4999769;28;20389;-64
2022/12/23 10:11:25;;;;;;;115.82;17.80;;;6.90;99.90;;;;;;5010510;28;20053;-64
2022/12/23 10:13:57;;;;;;;160.63;18.10;;;6.90;99.90;;;;;;5014317;28;20053;-64
2022/12/23 10:16:30;;;;;;;265.75;21.25;;;6.80;99.90;;;;;;5014114;28;20038;-64
2022/12/23 10:19:05;;;;;;;297.27;17.77;;;6.80;99.90;;;;;;4993309;28;20083;-64
2022/12/23 10:21:42;;;;;;;375.27;18.42;;;6.70;99.90;;;;;;5018146;28;20054;-64
2022/12/23 10:24:19;;;;;;;352.38;16.80;;;6.70;99.90;;;;;;5013926;28;20069;-64
2022/12/23 10:26:52;;;;;;;354.92;16.63;;;6.70;99.90;;;;;;5024135;28;20525;-64
2022/12/23 10:29:28;;;;;;;366.60;18.52;;;6.70;99.90;;;;;;5026371;28;20132;-64
2022/12/23 10:32:10;;;;;;;202.50;13.80;;;6.80;99.90;;;;;;5025717;28;20064;-64
2022/12/23 10:34:51;;;;;;;159.32;13.13;;;6.80;99.90;;;;;;5026395;28;20053;-64
2022/12/23 10:37:42;;;;;;;208.25;13.40;;;6.80;99.90;;;;;;5024037;28;20041;-64
2022/12/23 10:40:22;;;;;;;221.80;13.23;;;6.80;99.90;;;;;;5019600;28;20145;-64
2022/12/23 10:42:52;;;;;;;190.48;14.50;;;6.80;99.90;;;;;;5021490;28;20399;-64
2022/12/23 10:45:18;;;;;;;;;;;6.70;99.90;;;;;;5012439;28;20044;-64
2022/12/23 10:48:06;;;;;;;88.10;11.45;;;6.70;99.90;;;;;;5011761;28;19928;-64
2022/12/23 10:50:55;;;;;;;100.93;12.43;;;6.70;99.90;;;;;;5010048;28;20562;-64
2022/12/23 10:53:38;;;;;;;65.05;12.57;;;6.70;99.90;;;;;;4985049;28;20056;-64
2022/12/23 10:56:05;;;;;;;100.25;13.23;;;6.70;99.90;;;;;;5017158;28;20117;-63
2022/12/23 10:58:34;;;;;;;114.68;14.43;;;6.80;99.90;;;;;;5010174;28;20049;-64
2022/12/23 11:01:05;;;;;;;61.47;13.02;;;6.80;99.90;;;;;;5014426;28;20026;-63
2022/12/23 11:03:43;;;;;;;46.63;13.20;;;6.80;99.90;;;;;;5023037;28;20033;-63
2022/12/23 11:06:11;;;;;;;45.97;12.52;;;6.80;99.90;;;;;;5019412;28;20396;-64
2022/12/23 11:08:38;;;;;;;32.85;11.80;;;6.80;99.90;;;;;;5016229;28;20042;-64
2022/12/23 11:11:05;;;;;;;28.02;11.18;;;6.80;99.90;;;;;;5007932;28;20046;-64
2022/12/23 11:13:39;;;;;;;33.70;11.75;;;6.80;99.90;;;;;;5025915;28;20037;-63
2022/12/23 11:16:26;;;;;;;25.58;10.93;;;6.80;99.90;;;;;;5007874;28;20181;-64
2022/12/23 11:19:02;;;;;;;34.50;11.45;;;6.80;99.90;;;;;;5016966;28;20064;-63
2022/12/23 11:21:29;;;;;;;29.88;11.82;;;6.90;99.90;;;;;;5018322;28;20033;-64
2022/12/23 11:24:17;;;;;;;30.35;11.60;;;6.90;99.90;;;;;;4990345;28;20132;-63
2022/12/23 11:26:46;;;;;;;37.72;12.30;;;6.90;99.90;;;;;;5007516;28;20052;-63
2022/12/23 11:29:34;;;;;;;34.13;11.57;;;6.90;99.90;;;;;;5025447;28;20029;-63
2022/12/23 11:32:02;;;;;;;39.85;12.75;;;7.00;99.90;;;;;;5024860;28;20049;-63
2022/12/23 11:34:34;;;;;;;38.55;12.38;;;6.90;99.90;;;;;;5025271;28;20437;-63
2022/12/23 11:37:00;;;;;;;37.33;13.13;;;6.90;99.90;;;;;;5006742;28;20053;-63
2022/12/23 11:39:29;;;;;;;34.08;12.68;;;6.90;99.90;;;;;;5025794;28;20044;-63
2022/12/23 11:42:05;;;;;;;41.45;13.45;;;6.90;99.90;;;;;;5025112;28;20049;-63
2022/12/23 11:44:45;;;;;;;43.85;13.82;;;7.00;99.90;;;;;;5007755;28;20049;-63
2022/12/23 11:47:39;;;;;;;40.63;13.32;;;7.00;99.90;;;;;;5024917;28;20136;-63
2022/12/23 11:50:30;;;;;;;36.88;12.13;;;7.00;99.90;;;;;;4991164;28;20069;-63
2022/12/23 11:53:13;;;;;;;41.72;13.30;;;7.00;99.90;;;;;;5025521;28;21999;-63
2022/12/23 11:55:56;;;;;;;44.65;14.70;;;7.00;99.90;;;;;;5025378;28;20836;-64
2022/12/23 11:58:22;;;;;;;45.85;14.45;;;7.10;99.90;;;;;;4999997;28;20041;-64
2022/12/23 12:01:05;;;;;;;39.85;14.63;;;7.10;99.90;;;;;;5026071;28;20033;-63
2022/12/23 12:03:41;;;;;;;44.78;13.77;;;7.10;99.90;;;;;;5013375;28;20124;-63
2022/12/23 12:06:12;;;;;;;41.05;14.30;;;7.10;99.90;;;;;;5025106;28;20042;-63
2022/12/23 12:08:39;;;;;;;52.92;15.60;;;7.10;99.90;;;;;;5025363;28;20470;-63
2022/12/23 12:11:20;;;;;;;44.55;15.10;;;7.10;99.90;;;;;;4977304;28;20080;-63
2022/12/23 12:13:49;;;;;;;50.15;16.20;;;7.10;99.90;;;;;;5025496;28;20049;-63
2022/12/23 12:16:22;;;;;;;41.13;15.25;;;7.10;99.90;;;;;;5020460;28;20045;-63
2022/12/23 12:18:49;;;;;;;53.28;16.60;;;7.20;99.90;;;;;;5007870;28;20041;-63
2022/12/23 12:21:21;;;;;;;54.38;16.27;;;7.20;99.90;;;;;;5024900;28;20502;-63
2022/12/23 12:23:50;;;;;;;43.97;15.20;;;7.20;99.90;;;;;;5025415;28;20046;-63
2022/12/23 12:26:32;;;;;;;43.83;15.18;;;7.30;99.90;;;;;;5007134;28;20391;-63
2022/12/23 12:29:02;;;;;;;34.05;15.30;;;7.30;99.90;;;;;;5013457;28;20561;-63
2022/12/23 12:31:36;;;;;;;19.00;10.05;;;7.10;99.90;;;;;;5025809;28;20049;-63
2022/12/23 12:34:33;;;;;;;23.38;12.82;;;6.90;99.90;;;;;;5028725;28;20050;-63
2022/12/23 12:37:09;;;;;;;30.33;13.45;;;6.80;99.90;;;;;;5028587;28;20045;-63
2022/12/23 12:39:40;;;;;;;25.27;12.00;;;6.80;99.90;;;;;;5029576;28;20041;-63
2022/12/23 12:42:24;;;;;;;26.88;11.73;;;6.80;99.90;;;;;;5024252;28;20508;-63
2022/12/23 12:45:19;;;;;;;31.38;10.48;;;6.90;99.90;;;;;;5004872;28;20076;-64
2022/12/23 12:48:12;;;;;;;35.58;9.43;;;6.80;99.90;;;;;;5013690;28;20057;-63
2022/12/23 12:50:44;;;;;;;27.30;11.20;;;6.80;99.90;;;;;;5006489;28;20080;-64
2022/12/23 12:53:16;;;;;;;26.98;12.85;;;6.80;99.90;;;;;;4997299;28;20092;-64
2022/12/23 12:55:49;;;;;;;45.05;13.25;;;6.80;99.90;;;;;;5028286;28;20534;-63
2022/12/23 12:58:20;;;;;;;41.25;14.63;;;6.80;99.90;;;;;;5028076;28;20511;-64
2022/12/23 13:01:11;;;;;;;35.05;14.27;;;6.80;99.90;;;;;;5002896;28;20488;-63
2022/12/23 13:03:49;;;;;;;32.63;13.68;;;6.80;99.90;;;;;;5026044;28;20139;-63
2022/12/23 13:06:22;;;;;;;42.30;16.05;;;6.80;99.90;;;;;;5028126;28;20439;-63
2022/12/23 13:09:05;;;;;;;34.63;14.52;;;6.90;99.90;;;;;;5028476;28;20060;-63
2022/12/23 13:11:58;;;;;;;38.88;15.68;;;6.90;99.90;;;;;;5028169;28;20478;-64
2022/12/23 13:14:40;;;;;;;37.28;15.15;;;6.90;99.90;;;;;;5010888;28;20037;-63
2022/12/23 13:17:17;;;;;;;34.60;14.80;;;6.90;99.90;;;;;;5026431;28;20483;-63
2022/12/23 13:20:18;;;;;;;34.22;15.18;;;7.00;99.90;;;;;;5028467;28;20410;-63
2022/12/23 13:22:47;;;;;;;36.28;14.10;;;6.90;99.90;;;;;;5015135;28;20088;-62
2022/12/23 13:25:53;;;;;;;39.08;16.08;;;6.90;99.90;;;;;;5027417;28;20045;-62
2022/12/23 13:28:27;;;;;;;38.40;15.63;;;7.00;99.90;;;;;;4940057;29;20487;-62
2022/12/23 13:31:10;;;;;;;37.17;15.82;;;7.00;99.90;;;;;;5015921;28;20457;-61